Time;durP1;ratioP1;P1;durP2;ratioP2;P2;SDS_P1;SDS_P2;PMS_P1;PMS_P2;Temp;Humidity;BMP_temperature;BMP_pressure;BME280_temperature;BME280_humidity;BME280_pressure;Samples;Min_cycle;Max_cycle;Signal;HPM_P1;HPM_P2
2022/10/05 00:02:21;;;;;;;10.10;5.70;;;;;;;;;;5053866;28;20425;-42
2022/10/05 00:04:54;;;;;;;9.27;5.40;;;;;;;;;;5053495;28;20413;-42
2022/10/05 00:07:22;;;;;;;7.03;4.87;;;;;;;;;;5053321;28;20446;-44
2022/10/05 00:09:52;;;;;;;9.40;5.63;;;;;;;;;;5053496;28;20415;-41
2022/10/05 00:12:19;;;;;;;8.43;5.53;;;;;;;;;;5053780;28;20481;-41
2022/10/05 00:14:46;;;;;;;6.40;5.70;;;;;;;;;;5053528;28;20458;-42
2022/10/05 00:17:17;;;;;;;8.77;5.67;;;;;;;;;;5053022;28;20969;-42
2022/10/05 00:19:45;;;;;;;7.63;5.83;;;;;;;;;;5053154;28;20412;-41
2022/10/05 00:22:12;;;;;;;10.17;6.17;;;;;;;;;;5053711;28;20920;-42
2022/10/05 00:24:38;;;;;;;7.90;5.63;;;;;;;;;;5053317;28;20411;-42
2022/10/05 00:27:21;;;;;;;8.53;6.20;;;;;;;;;;5052925;28;20400;-42
2022/10/05 00:29:47;;;;;;;5.67;5.17;;;;;;;;;;5053115;28;20408;-42
2022/10/05 00:32:13;;;;;;;6.70;5.93;;;;;;;;;;5051851;28;20411;-42
2022/10/05 00:34:40;;;;;;;8.10;5.50;;;;;;;;;;5053101;28;20491;-41
2022/10/05 00:37:06;;;;;;;7.73;5.53;;;;;;;;;;5052526;28;20407;-42
2022/10/05 00:39:33;;;;;;;7.60;6.37;;;;;;;;;;5052923;28;20441;-42
2022/10/05 00:42:07;;;;;;;6.53;5.93;;;;;;;;;;5053252;28;20411;-43
2022/10/05 00:44:55;;;;;;;10.53;5.97;;;;;;;;;;5052953;28;20898;-46
2022/10/05 00:47:27;;;;;;;5.93;5.33;;;;;;;;;;5052406;28;20410;-42
2022/10/05 00:49:53;;;;;;;10.60;7.20;;;;;;;;;;5052677;28;20411;-42
2022/10/05 00:52:30;;;;;;;7.93;6.07;;;;;;;;;;5053235;28;20781;-42
2022/10/05 00:55:02;;;;;;;8.90;5.83;;;;;;;;;;5052881;28;20510;-41
2022/10/05 00:57:28;;;;;;;10.70;6.53;;;;;;;;;;5051982;28;20514;-43
2022/10/05 00:59:57;;;;;;;11.13;5.97;;;;;;;;;;5052552;28;20852;-46
2022/10/05 01:02:31;;;;;;;13.37;5.43;;;;;;;;;;5051737;28;20432;-42
2022/10/05 01:04:58;;;;;;;8.63;6.40;;;;;;;;;;5052164;28;20912;-42
2022/10/05 01:07:46;;;;;;;8.23;6.50;;;;;;;;;;5051599;28;20430;-42
2022/10/05 01:10:18;;;;;;;8.47;5.70;;;;;;;;;;5052514;28;20908;-42
2022/10/05 01:12:44;;;;;;;5.87;5.27;;;;;;;;;;5052399;28;20435;-42
2022/10/05 01:15:13;;;;;;;7.73;6.00;;;;;;;;;;5052550;28;20491;-42
2022/10/05 01:17:41;;;;;;;10.40;6.10;;;;;;;;;;5051548;28;20516;-46
2022/10/05 01:20:26;;;;;;;13.00;7.37;;;;;;;;;;5052271;28;20398;-42
2022/10/05 01:23:06;;;;;;;10.90;6.20;;;;;;;;;;5052382;28;20915;-43
2022/10/05 01:25:41;;;;;;;6.90;6.20;;;;;;;;;;5052418;28;20404;-43
2022/10/05 01:28:09;;;;;;;7.87;6.23;;;;;;;;;;5051950;28;20776;-43
2022/10/05 01:30:59;;;;;;;7.37;6.07;;;;;;;;;;5052160;28;20999;-42
2022/10/05 01:33:25;;;;;;;9.50;6.70;;;;;;;;;;5049000;28;20454;-46
2022/10/05 01:35:57;;;;;;;10.77;7.20;;;;;;;;;;5051743;28;20461;-42
2022/10/05 01:38:34;;;;;;;9.40;6.57;;;;;;;;;;5051711;28;20422;-44
2022/10/05 01:41:14;;;;;;;10.40;7.30;;;;;;;;;;5051968;28;20400;-42
2022/10/05 01:43:45;;;;;;;9.93;6.50;;;;;;;;;;5051907;28;20818;-41
2022/10/05 01:46:12;;;;;;;8.00;6.93;;;;;;;;;;5051596;28;20398;-42
2022/10/05 01:48:46;;;;;;;7.53;6.77;;;;;;;;;;5051710;28;20397;-45
2022/10/05 01:51:36;;;;;;;11.33;6.93;;;;;;;;;;5052113;28;20748;-42
2022/10/05 01:54:22;;;;;;;6.87;6.17;;;;;;;;;;5051743;28;20426;-45
2022/10/05 01:56:59;;;;;;;8.03;6.77;;;;;;;;;;5050516;28;20399;-42
2022/10/05 01:59:34;;;;;;;8.40;6.77;;;;;;;;;;5051659;28;20445;-43
2022/10/05 02:02:03;;;;;;;9.67;7.03;;;;;;;;;;5051671;28;20481;-42
2022/10/05 02:04:34;;;;;;;12.33;7.30;;;;;;;;;;5051718;28;20893;-43
2022/10/05 02:07:01;;;;;;;7.60;6.80;;;;;;;;;;5050823;28;20409;-42
2022/10/05 02:09:33;;;;;;;6.90;6.37;;;;;;;;;;5051471;28;20903;-42
2022/10/05 02:12:05;;;;;;;9.37;7.00;;;;;;;;;;5051704;28;20407;-42
2022/10/05 02:14:37;;;;;;;8.90;6.27;;;;;;;;;;5052149;28;21018;-42
2022/10/05 02:17:06;;;;;;;12.73;7.17;;;;;;;;;;5050746;28;20421;-42
2022/10/05 02:19:38;;;;;;;10.50;7.30;;;;;;;;;;5051562;28;20474;-42
2022/10/05 02:22:10;;;;;;;7.37;6.57;;;;;;;;;;5051494;28;20407;-44
2022/10/05 02:24:39;;;;;;;8.30;7.30;;;;;;;;;;5051533;28;20408;-42
2022/10/05 02:27:05;;;;;;;10.80;7.73;;;;;;;;;;5050518;28;20431;-45
2022/10/05 02:29:32;;;;;;;9.40;7.10;;;;;;;;;;5051275;28;20942;-42
2022/10/05 02:32:21;;;;;;;18.43;6.90;;;;;;;;;;5049934;28;20787;-42
2022/10/05 02:34:47;;;;;;;8.13;6.77;;;;;;;;;;5051431;28;20460;-42
2022/10/05 02:37:31;;;;;;;8.37;6.40;;;;;;;;;;5050465;28;20900;-42
2022/10/05 02:40:03;;;;;;;7.70;6.23;;;;;;;;;;5051130;28;20400;-42
2022/10/05 02:42:51;;;;;;;7.47;6.00;;;;;;;;;;5051441;28;20411;-41
2022/10/05 02:45:20;;;;;;;9.17;6.27;;;;;;;;;;5051395;28;20410;-42
2022/10/05 02:47:58;;;;;;;8.90;6.37;;;;;;;;;;5050193;28;20503;-44
2022/10/05 02:50:37;;;;;;;8.70;6.60;;;;;;;;;;5051186;28;20889;-43
2022/10/05 02:53:18;;;;;;;10.93;6.90;;;;;;;;;;5051653;28;20875;-44
2022/10/05 02:56:06;;;;;;;7.77;6.20;;;;;;;;;;5051274;28;20452;-42
2022/10/05 02:58:39;;;;;;;10.77;6.50;;;;;;;;;;5050666;28;20398;-42
2022/10/05 03:01:17;;;;;;;6.53;5.83;;;;;;;;;;5051073;28;20479;-45
2022/10/05 03:03:46;;;;;;;6.93;6.23;;;;;;;;;;5051163;28;20428;-42
2022/10/05 03:06:17;;;;;;;7.97;7.13;;;;;;;;;;5050976;28;20406;-42
2022/10/05 03:09:02;;;;;;;8.30;6.70;;;;;;;;;;5054188;28;20485;-42
2022/10/05 03:11:31;;;;;;;10.20;7.50;;;;;;;;;;5054939;28;20461;-42
2022/10/05 03:14:09;;;;;;;13.30;6.40;;;;;;;;;;5054795;28;20438;-42
2022/10/05 03:16:38;;;;;;;10.27;6.80;;;;;;;;;;5054703;28;20401;-43
2022/10/05 03:19:22;;;;;;;8.53;6.37;;;;;;;;;;5053682;28;20832;-42
2022/10/05 03:22:08;;;;;;;11.37;6.53;;;;;;;;;;5054917;28;20454;-43
2022/10/05 03:24:44;;;;;;;12.30;7.10;;;;;;;;;;5054730;28;20493;-42
2022/10/05 03:27:29;;;;;;;10.90;7.00;;;;;;;;;;5053889;28;20410;-42
2022/10/05 03:29:58;;;;;;;8.20;6.57;;;;;;;;;;5054204;28;20404;-42
2022/10/05 03:32:39;;;;;;;7.17;6.27;;;;;;;;;;5053048;28;20919;-43
2022/10/05 03:35:15;;;;;;;8.73;7.10;;;;;;;;;;5054090;28;20464;-42
2022/10/05 03:37:51;;;;;;;7.57;6.27;;;;;;;;;;5053592;28;20508;-47
2022/10/05 03:40:25;;;;;;;10.60;7.50;;;;;;;;;;5054637;28;20371;-42
2022/10/05 03:42:52;;;;;;;8.70;5.83;;;;;;;;;;5054429;28;20763;-42
2022/10/05 03:45:24;;;;;;;7.20;5.20;;;;;;;;;;5054233;28;20403;-42
2022/10/05 03:47:59;;;;;;;8.10;5.77;;;;;;;;;;5053632;28;20497;-46
2022/10/05 03:50:28;;;;;;;8.07;5.50;;;;;;;;;;5054128;28;20760;-43
2022/10/05 03:52:58;;;;;;;8.50;7.03;;;;;;;;;;5054246;28;20540;-42
2022/10/05 03:55:40;;;;;;;10.60;6.80;;;;;;;;;;5054062;28;20454;-42
2022/10/05 03:58:10;;;;;;;8.80;6.13;;;;;;;;;;5052990;28;20782;-42
2022/10/05 04:00:37;;;;;;;8.83;6.30;;;;;;;;;;5053873;28;20444;-42
2022/10/05 04:03:17;;;;;;;9.13;5.93;;;;;;;;;;5053891;28;20428;-42
2022/10/05 04:05:49;;;;;;;7.27;6.00;;;;;;;;;;5054050;28;20415;-42
2022/10/05 04:08:33;;;;;;;13.03;6.33;;;;;;;;;;5053132;28;20434;-42
2022/10/05 04:11:03;;;;;;;12.10;6.60;;;;;;;;;;5053662;28;20411;-42
2022/10/05 04:13:37;;;;;;;9.20;6.10;;;;;;;;;;5053741;28;20490;-43
2022/10/05 04:16:15;;;;;;;7.33;6.50;;;;;;;;;;5053436;28;20467;-43
2022/10/05 04:18:54;;;;;;;9.93;6.97;;;;;;;;;;5052423;28;20458;-45
2022/10/05 04:21:24;;;;;;;9.80;6.90;;;;;;;;;;5053649;28;20382;-42
2022/10/05 04:23:54;;;;;;;9.67;6.30;;;;;;;;;;5053852;28;20408;-42
2022/10/05 04:26:26;;;;;;;7.00;6.30;;;;;;;;;;5053291;28;20776;-41
2022/10/05 04:29:07;;;;;;;10.23;6.83;;;;;;;;;;5052573;28;20423;-44
2022/10/05 04:31:44;;;;;;;9.77;7.00;;;;;;;;;;5051871;28;20407;-46
2022/10/05 04:34:29;;;;;;;7.70;6.90;;;;;;;;;;5053425;28;20510;-43
2022/10/05 04:37:00;;;;;;;8.17;6.90;;;;;;;;;;5052643;28;20545;-44
2022/10/05 04:39:29;;;;;;;9.90;7.33;;;;;;;;;;5052756;28;20410;-42
2022/10/05 04:41:55;;;;;;;10.07;6.67;;;;;;;;;;5053251;28;20399;-45
2022/10/05 04:44:40;;;;;;;8.90;6.37;;;;;;;;;;5053211;28;20403;-42
2022/10/05 04:47:27;;;;;;;9.50;6.30;;;;;;;;;;5052428;28;20489;-42
2022/10/05 04:49:53;;;;;;;12.67;7.63;;;;;;;;;;5052590;28;20398;-42
2022/10/05 04:52:22;;;;;;;10.30;7.47;;;;;;;;;;5053121;28;20418;-42
2022/10/05 04:55:03;;;;;;;7.43;5.90;;;;;;;;;;5053091;28;20451;-42
2022/10/05 04:57:36;;;;;;;9.27;6.50;;;;;;;;;;5052129;28;20509;-42
2022/10/05 05:00:09;;;;;;;6.83;6.03;;;;;;;;;;5052398;28;20766;-47
2022/10/05 05:02:45;;;;;;;8.10;6.97;;;;;;;;;;5052411;28;20954;-42
2022/10/05 05:05:30;;;;;;;12.83;7.07;;;;;;;;;;5052804;28;20419;-42
2022/10/05 05:08:06;;;;;;;8.63;6.30;;;;;;;;;;5051608;28;20423;-42
2022/10/05 05:10:53;;;;;;;7.40;6.70;;;;;;;;;;5051429;28;20400;-42
2022/10/05 05:13:19;;;;;;;8.40;6.53;;;;;;;;;;5052799;28;20894;-42
2022/10/05 05:16:04;;;;;;;7.73;6.33;;;;;;;;;;5052418;28;20447;-43
2022/10/05 05:18:56;;;;;;;10.67;6.80;;;;;;;;;;5051907;28;20791;-42
2022/10/05 05:21:42;;;;;;;8.37;6.70;;;;;;;;;;5052334;28;20398;-42
2022/10/05 05:24:20;;;;;;;11.77;7.03;;;;;;;;;;5052589;28;20392;-42
2022/10/05 05:26:46;;;;;;;8.27;6.20;;;;;;;;;;5052159;28;20435;-42
2022/10/05 05:29:15;;;;;;;7.27;6.57;;;;;;;;;;5051432;28;20426;-44
2022/10/05 05:31:57;;;;;;;9.90;6.17;;;;;;;;;;5049828;28;20412;-42
2022/10/05 05:34:49;;;;;;;7.23;6.40;;;;;;;;;;5052206;28;20800;-42
2022/10/05 05:37:21;;;;;;;8.57;6.43;;;;;;;;;;5051415;28;20902;-42
2022/10/05 05:39:46;;;;;;;11.63;7.87;;;;;;;;;;5051892;28;20412;-44
2022/10/05 05:42:17;;;;;;;12.80;7.60;;;;;;;;;;5052129;28;20485;-42
2022/10/05 05:44:43;;;;;;;8.87;6.63;;;;;;;;;;5052249;28;20411;-44
2022/10/05 05:47:18;;;;;;;6.97;6.27;;;;;;;;;;5051368;28;20410;-44
2022/10/05 05:50:13;;;;;;;8.23;6.87;;;;;;;;;;5043883;28;20488;-44
2022/10/05 05:52:46;;;;;;;7.80;6.87;;;;;;;;;;5029358;28;20536;-44
2022/10/05 05:55:20;;;;;;;12.10;6.23;;;;;;;;;;5031883;28;20550;-44
2022/10/05 05:57:51;;;;;;;8.80;6.10;;;;;;;;;;5030836;28;20426;-44
2022/10/05 06:00:24;;;;;;;7.87;6.47;;;;;;;;;;5031301;28;20394;-44
2022/10/05 06:02:52;;;;;;;8.07;5.73;;;;;;;;;;5031784;28;20452;-44
2022/10/05 06:05:25;;;;;;;6.70;5.80;;;;;;;;;;5030028;28;20773;-44
2022/10/05 06:07:52;;;;;;;8.33;6.30;;;;;;;;;;5036167;28;21019;-44
2022/10/05 06:10:27;;;;;;;9.50;6.50;;;;;;;;;;5051626;28;20563;-44
2022/10/05 06:12:54;;;;;;;6.47;5.80;;;;;;;;;;5051613;28;20466;-44
2022/10/05 06:15:34;;;;;;;6.40;5.50;;;;;;;;;;5051690;28;20792;-44
2022/10/05 06:18:08;;;;;;;12.23;6.50;;;;;;;;;;5050975;28;20471;-44
2022/10/05 06:20:37;;;;;;;9.50;6.10;;;;;;;;;;5051233;28;20398;-44
2022/10/05 06:23:06;;;;;;;11.50;6.33;;;;;;;;;;5051446;28;20466;-44
2022/10/05 06:25:54;;;;;;;7.27;5.40;;;;;;;;;;5051488;28;20403;-44
2022/10/05 06:28:20;;;;;;;9.10;5.20;;;;;;;;;;5051007;28;20424;-44
2022/10/05 06:31:04;;;;;;;5.63;5.03;;;;;;;;;;5051117;28;20458;-44
2022/10/05 06:33:48;;;;;;;6.80;5.10;;;;;;;;;;5051319;28;20399;-44
2022/10/05 06:36:33;;;;;;;13.73;5.70;;;;;;;;;;5051024;28;20552;-44
2022/10/05 06:39:07;;;;;;;6.13;4.43;;;;;;;;;;5050651;28;20423;-44
2022/10/05 06:41:51;;;;;;;5.87;5.17;;;;;;;;;;5051518;28;20395;-44
2022/10/05 06:44:37;;;;;;;4.70;4.30;;;;;;;;;;5055330;28;20432;-45
2022/10/05 06:47:26;;;;;;;5.50;5.00;;;;;;;;;;5054825;28;20417;-42
2022/10/05 06:49:52;;;;;;;6.53;4.77;;;;;;;;;;5055106;28;20404;-44
2022/10/05 06:52:37;;;;;;;4.97;4.43;;;;;;;;;;5054952;28;20398;-42
2022/10/05 06:55:15;;;;;;;5.40;4.90;;;;;;;;;;5055001;28;21049;-42
2022/10/05 06:57:44;;;;;;;7.30;4.70;;;;;;;;;;5054571;28;20415;-42
2022/10/05 07:00:19;;;;;;;6.13;4.80;;;;;;;;;;5054884;28;20959;-41
2022/10/05 07:02:51;;;;;;;6.87;5.13;;;;;;;;;;5054927;28;20442;-41
2022/10/05 07:05:23;;;;;;;5.17;4.60;;;;;;;;;;5053768;28;20424;-42
2022/10/05 07:07:58;;;;;;;6.50;4.97;;;;;;;;;;5054305;28;20919;-42
2022/10/05 07:10:43;;;;;;;5.83;4.23;;;;;;;;;;5054810;28;20404;-42
2022/10/05 07:13:37;;;;;;;6.30;4.23;;;;;;;;;;5053082;28;20917;-44
2022/10/05 07:16:15;;;;;;;5.70;5.10;;;;;;;;;;5054629;28;20427;-42
2022/10/05 07:18:41;;;;;;;5.50;4.17;;;;;;;;;;5054247;28;20417;-42
2022/10/05 07:21:25;;;;;;;4.83;4.43;;;;;;;;;;5054481;28;20421;-41
2022/10/05 07:24:00;;;;;;;8.33;4.50;;;;;;;;;;5053332;28;20416;-42
2022/10/05 07:26:40;;;;;;;4.80;4.07;;;;;;;;;;5054434;28;20492;-41
2022/10/05 07:29:06;;;;;;;6.00;4.07;;;;;;;;;;5053913;28;20440;-44
2022/10/05 07:31:52;;;;;;;6.50;3.77;;;;;;;;;;5054392;28;20408;-44
2022/10/05 07:34:25;;;;;;;4.90;4.50;;;;;;;;;;5054369;28;20496;-44
2022/10/05 07:40:00;;;;;;;4.33;3.93;;;;;;;;;;5054394;28;20399;-44
2022/10/05 07:42:29;;;;;;;4.20;3.80;;;;;;;;;;5053832;28;20410;-44
2022/10/05 07:45:03;;;;;;;4.57;3.70;;;;;;;;;;5054320;28;20815;-44
2022/10/05 07:47:29;;;;;;;4.80;3.67;;;;;;;;;;5045424;28;20425;-41
2022/10/05 07:50:02;;;;;;;4.40;3.90;;;;;;;;;;5050611;28;20424;-44
2022/10/05 07:52:39;;;;;;;7.10;3.90;;;;;;;;;;5053887;28;20496;-44
2022/10/05 07:55:24;;;;;;;5.07;3.90;;;;;;;;;;5053117;28;20460;-44
2022/10/05 07:57:58;;;;;;;8.33;3.97;;;;;;;;;;5053405;28;20388;-44
2022/10/05 08:00:42;;;;;;;5.70;4.10;;;;;;;;;;5053905;28;20376;-47
2022/10/05 08:03:12;;;;;;;7.10;4.40;;;;;;;;;;5053679;28;20417;-46
2022/10/05 08:05:41;;;;;;;5.50;4.40;;;;;;;;;;5053911;28;20447;-47
2022/10/05 08:08:07;;;;;;;5.23;3.60;;;;;;;;;;5053263;28;20827;-48
2022/10/05 08:10:39;;;;;;;4.27;3.87;;;;;;;;;;5053670;28;20402;-47
2022/10/05 08:13:29;;;;;;;4.10;3.77;;;;;;;;;;5053675;28;20376;-47
2022/10/05 08:15:58;;;;;;;4.87;3.83;;;;;;;;;;5053916;28;20497;-47
2022/10/05 08:18:33;;;;;;;4.70;4.20;;;;;;;;;;5053125;28;20418;-48
2022/10/05 08:21:01;;;;;;;5.93;4.20;;;;;;;;;;5053441;28;20420;-48
2022/10/05 08:23:34;;;;;;;8.90;3.70;;;;;;;;;;5053458;28;20852;-47
2022/10/05 08:26:10;;;;;;;6.40;4.20;;;;;;;;;;5053348;28;20455;-47
2022/10/05 08:28:45;;;;;;;5.37;3.93;;;;;;;;;;5052912;28;20835;-47
2022/10/05 08:31:28;;;;;;;4.17;3.70;;;;;;;;;;5053414;28;20403;-45
2022/10/05 08:34:02;;;;;;;5.57;4.03;;;;;;;;;;5053332;28;20407;-47
2022/10/05 08:36:53;;;;;;;4.70;4.03;;;;;;;;;;5052945;28;20913;-47
2022/10/05 08:39:20;;;;;;;4.77;4.17;;;;;;;;;;5042642;28;20880;-47
2022/10/05 08:42:05;;;;;;;4.20;3.80;;;;;;;;;;5053325;28;20443;-46
2022/10/05 08:44:50;;;;;;;3.60;3.30;;;;;;;;;;5053036;28;20466;-45
2022/10/05 08:47:35;;;;;;;4.17;3.37;;;;;;;;;;5052532;28;20412;-47
2022/10/05 08:50:17;;;;;;;3.67;3.37;;;;;;;;;;5053059;28;20407;-47
2022/10/05 08:52:52;;;;;;;3.40;3.00;;;;;;;;;;5053112;28;20464;-44
2022/10/05 08:55:42;;;;;;;4.90;3.17;;;;;;;;;;5053068;28;20423;-47
2022/10/05 08:58:24;;;;;;;3.33;3.03;;;;;;;;;;5052282;28;20804;-47
2022/10/05 09:00:59;;;;;;;4.90;3.27;;;;;;;;;;5051339;28;20842;-45
2022/10/05 09:03:25;;;;;;;6.13;3.53;;;;;;;;;;5052466;28;20389;-46
2022/10/05 09:05:51;;;;;;;3.17;2.83;;;;;;;;;;5052662;28;20823;-47
2022/10/05 09:08:46;;;;;;;4.20;3.57;;;;;;;;;;5051959;28;20430;-42
2022/10/05 09:11:32;;;;;;;3.43;3.13;;;;;;;;;;5047647;28;20420;-42
2022/10/05 09:14:13;;;;;;;3.80;3.57;;;;;;;;;;5052323;28;20393;-43
2022/10/05 09:16:52;;;;;;;3.70;3.40;;;;;;;;;;5052293;28;20888;-45
2022/10/05 09:19:27;;;;;;;4.17;3.77;;;;;;;;;;5051758;28;20400;-45
2022/10/05 09:22:11;;;;;;;3.17;2.97;;;;;;;;;;5052373;28;20406;-42
2022/10/05 09:24:37;;;;;;;4.13;3.73;;;;;;;;;;5052201;28;20399;-42
2022/10/05 09:27:09;;;;;;;3.57;3.33;;;;;;;;;;5051971;28;20380;-53
2022/10/05 09:29:53;;;;;;;4.20;3.67;;;;;;;;;;5051957;28;20456;-42
2022/10/05 09:32:38;;;;;;;3.07;2.87;;;;;;;;;;5052372;28;20410;-43
2022/10/05 09:35:04;;;;;;;5.13;3.40;;;;;;;;;;5052185;28;20974;-43
2022/10/05 09:37:49;;;;;;;5.97;3.60;;;;;;;;;;5051471;28;20430;-41
2022/10/05 09:40:18;;;;;;;3.40;3.07;;;;;;;;;;5051945;28;20395;-44
2022/10/05 09:42:44;;;;;;;3.53;2.97;;;;;;;;;;5052051;28;20377;-42
2022/10/05 09:45:25;;;;;;;9.47;3.57;;;;;;;;;;5051723;28;20397;-42
2022/10/05 09:48:13;;;;;;;3.40;3.00;;;;;;;;;;5051225;28;20423;-48
2022/10/05 09:50:40;;;;;;;3.83;3.53;;;;;;;;;;5051858;28;20397;-47
2022/10/05 09:53:15;;;;;;;4.00;3.47;;;;;;;;;;5051953;28;20386;-48
2022/10/05 09:56:00;;;;;;;5.20;3.70;;;;;;;;;;5051549;28;20542;-45
2022/10/05 09:58:41;;;;;;;3.80;3.30;;;;;;;;;;5051232;28;20387;-48
2022/10/05 10:01:19;;;;;;;3.90;3.57;;;;;;;;;;5052069;28;20432;-47
2022/10/05 10:04:06;;;;;;;3.60;3.30;;;;;;;;;;5051483;28;20391;-45
2022/10/05 10:06:45;;;;;;;3.90;3.47;;;;;;;;;;5051470;28;20400;-47
2022/10/05 10:09:29;;;;;;;3.77;3.47;;;;;;;;;;5051074;28;20398;-46
2022/10/05 10:12:10;;;;;;;3.63;3.33;;;;;;;;;;5051680;28;20410;-48
2022/10/05 10:14:55;;;;;;;4.07;3.00;;;;;;;;;;5051435;28;20460;-45
2022/10/05 10:17:54;;;;;;;3.20;2.83;;;;;;;;;;5050516;28;20474;-47
2022/10/05 10:20:32;;;;;;;2.93;2.70;;;;;;;;;;5039282;28;20418;-48
2022/10/05 10:23:01;;;;;;;2.70;2.50;;;;;;;;;;5051570;28;20462;-48
2022/10/05 10:25:46;;;;;;;3.20;2.70;;;;;;;;;;5051171;28;20389;-47
2022/10/05 10:28:14;;;;;;;3.57;3.20;;;;;;;;;;5050890;28;20417;-46
2022/10/05 10:30:50;;;;;;;3.40;3.10;;;;;;;;;;5051826;28;20927;-49
2022/10/05 10:33:22;;;;;;;4.27;2.80;;;;;;;;;;5051427;28;20387;-46
2022/10/05 10:35:55;;;;;;;5.13;2.50;;;;;;;;;;5051260;28;20644;-46
2022/10/05 10:38:29;;;;;;;3.37;3.03;;;;;;;;;;5050779;28;20396;-47
2022/10/05 10:40:55;;;;;;;2.50;2.40;;;;;;;;;;5051118;28;20774;-47
2022/10/05 10:43:40;;;;;;;4.17;2.70;;;;;;;;;;5051218;28;20388;-47
2022/10/05 10:46:06;;;;;;;3.00;2.60;;;;;;;;;;5050670;28;20397;-42
2022/10/05 10:48:49;;;;;;;5.00;2.93;;;;;;;;;;5050836;28;20487;-45
2022/10/05 10:51:38;;;;;;;3.30;2.53;;;;;;;;;;5051317;28;20904;-42
2022/10/05 10:54:04;;;;;;;5.73;2.90;;;;;;;;;;5048969;28;20422;-42
2022/10/05 10:56:39;;;;;;;2.70;2.50;;;;;;;;;;5050682;28;20456;-42
2022/10/05 10:59:16;;;;;;;4.07;2.90;;;;;;;;;;5050534;28;20417;-41
2022/10/05 11:02:00;;;;;;;2.97;2.67;;;;;;;;;;5051121;28;20528;-42
2022/10/05 11:04:45;;;;;;;2.57;2.47;;;;;;;;;;5050981;28;20409;-45
2022/10/05 11:07:16;;;;;;;3.57;2.60;;;;;;;;;;5050520;28;20402;-45
2022/10/05 11:09:55;;;;;;;2.73;2.50;;;;;;;;;;5050761;28;20743;-42
2022/10/05 11:12:22;;;;;;;3.53;2.80;;;;;;;;;;5051038;28;20405;-42
2022/10/05 11:15:06;;;;;;;2.67;2.47;;;;;;;;;;5050626;28;20488;-42
2022/10/05 11:17:55;;;;;;;3.90;2.90;;;;;;;;;;5049715;28;20408;-42
2022/10/05 11:20:24;;;;;;;2.73;2.53;;;;;;;;;;5050885;28;20407;-42
2022/10/05 11:22:53;;;;;;;2.80;2.60;;;;;;;;;;5050938;28;21007;-43
2022/10/05 11:25:19;;;;;;;2.70;2.50;;;;;;;;;;5050644;28;20459;-44
2022/10/05 11:27:48;;;;;;;2.23;2.13;;;;;;;;;;5050150;28;20468;-46
2022/10/05 11:30:14;;;;;;;2.67;2.43;;;;;;;;;;5053671;28;20589;-45
2022/10/05 11:32:40;;;;;;;3.13;2.40;;;;;;;;;;5054398;28;20401;-44
2022/10/05 11:35:09;;;;;;;2.50;2.00;;;;;;;;;;5054306;28;20452;-45
2022/10/05 11:37:39;;;;;;;2.00;1.80;;;;;;;;;;5053926;28;20413;-44
2022/10/05 11:40:19;;;;;;;2.93;2.13;;;;;;;;;;5054166;28;20915;-44
2022/10/05 11:42:45;;;;;;;3.50;2.23;;;;;;;;;;5053165;28;20542;-45
2022/10/05 11:45:23;;;;;;;2.00;1.90;;;;;;;;;;5054963;28;20898;-44
2022/10/05 11:48:09;;;;;;;3.03;2.50;;;;;;;;;;5056047;28;20424;-44
2022/10/05 11:50:39;;;;;;;2.50;2.30;;;;;;;;;;5044293;28;20409;-45
2022/10/05 11:53:20;;;;;;;3.40;3.10;;;;;;;;;;5053734;28;20893;-48
2022/10/05 11:55:49;;;;;;;2.40;2.07;;;;;;;;;;5044303;28;20456;-48
2022/10/05 11:58:21;;;;;;;2.00;1.90;;;;;;;;;;5063714;28;20483;-46
2022/10/05 12:00:53;;;;;;;7.33;2.70;;;;;;;;;;5033879;28;20413;-47
2022/10/05 12:03:28;;;;;;;2.33;2.13;;;;;;;;;;5041030;28;20957;-49
2022/10/05 12:05:56;;;;;;;2.73;2.20;;;;;;;;;;5046810;28;20413;-46
2022/10/05 12:08:28;;;;;;;3.30;3.00;;;;;;;;;;5042706;28;20969;-48
2022/10/05 12:11:13;;;;;;;2.80;2.00;;;;;;;;;;5041050;28;21045;-47
2022/10/05 12:13:49;;;;;;;2.20;2.10;;;;;;;;;;5033504;28;21005;-48
2022/10/05 12:16:24;;;;;;;3.30;3.07;;;;;;;;;;5032735;28;20453;-48
2022/10/05 12:19:00;;;;;;;3.03;2.50;;;;;;;;;;5033012;28;20436;-48
2022/10/05 12:21:39;;;;;;;2.67;2.47;;;;;;;;;;5033663;28;20405;-48
2022/10/05 12:24:15;;;;;;;3.13;2.10;;;;;;;;;;5033689;28;20459;-46
2022/10/05 12:26:48;;;;;;;2.33;2.13;;;;;;;;;;5037804;28;20409;-44
2022/10/05 12:29:31;;;;;;;3.07;2.77;;;;;;;;;;5032634;28;20426;-45
2022/10/05 12:31:59;;;;;;;2.80;2.20;;;;;;;;;;5033380;28;20406;-44
2022/10/05 12:34:31;;;;;;;4.73;2.07;;;;;;;;;;5041281;28;20897;-45
2022/10/05 12:37:01;;;;;;;2.70;2.40;;;;;;;;;;5043506;28;20409;-45
2022/10/05 12:39:30;;;;;;;3.03;2.13;;;;;;;;;;5037438;28;20403;-45
2022/10/05 12:42:15;;;;;;;2.90;2.70;;;;;;;;;;5033024;28;21024;-46
2022/10/05 12:44:56;;;;;;;2.93;2.27;;;;;;;;;;5031306;28;20489;-44
2022/10/05 12:47:35;;;;;;;2.60;2.50;;;;;;;;;;5049155;28;20433;-44
2022/10/05 12:50:30;;;;;;;12.23;2.50;;;;;;;;;;5036699;28;20406;-44
2022/10/05 12:53:08;;;;;;;2.20;2.00;;;;;;;;;;5025657;28;20410;-44
2022/10/05 12:55:42;;;;;;;2.30;2.00;;;;;;;;;;5032270;28;21047;-44
2022/10/05 12:58:27;;;;;;;3.00;2.80;;;;;;;;;;5032251;28;20418;-44
2022/10/05 13:01:16;;;;;;;2.10;2.00;;;;;;;;;;5032398;28;20821;-43
2022/10/05 13:04:00;;;;;;;2.17;1.97;;;;;;;;;;5022293;28;20848;-43
2022/10/05 13:06:39;;;;;;;2.13;1.80;;;;;;;;;;5033073;28;20421;-44
2022/10/05 13:09:17;;;;;;;3.70;1.93;;;;;;;;;;5031836;28;20488;-44
2022/10/05 13:11:49;;;;;;;2.10;1.90;;;;;;;;;;5032518;28;20409;-47
2022/10/05 13:14:19;;;;;;;2.20;1.60;;;;;;;;;;5032610;28;20414;-44
2022/10/05 13:17:07;;;;;;;1.87;1.77;;;;;;;;;;5032679;28;20524;-43
2022/10/05 13:19:39;;;;;;;4.47;2.10;;;;;;;;;;5031668;28;20910;-47
2022/10/05 13:22:05;;;;;;;2.03;1.83;;;;;;;;;;5032586;28;20421;-48
2022/10/05 13:24:36;;;;;;;1.67;1.57;;;;;;;;;;5032527;28;20488;-47
2022/10/05 13:27:18;;;;;;;2.17;1.97;;;;;;;;;;5032308;28;20167;-48
2022/10/05 13:29:59;;;;;;;3.10;1.73;;;;;;;;;;5031837;28;20406;-43
2022/10/05 13:32:29;;;;;;;1.57;1.47;;;;;;;;;;5032298;28;20419;-43
2022/10/05 13:35:13;;;;;;;1.43;1.33;;;;;;;;;;5032584;28;20449;-48
2022/10/05 13:38:12;;;;;;;1.63;1.53;;;;;;;;;;5039163;28;20924;-46
2022/10/05 13:40:44;;;;;;;1.60;1.50;;;;;;;;;;5020034;28;20402;-47
2022/10/05 13:43:26;;;;;;;1.83;1.60;;;;;;;;;;5032522;28;20398;-46
2022/10/05 13:45:55;;;;;;;1.50;1.40;;;;;;;;;;5044539;28;20493;-48
2022/10/05 13:48:30;;;;;;;8.47;2.20;;;;;;;;;;5036127;28;20426;-49
2022/10/05 13:50:59;;;;;;;4.67;1.60;;;;;;;;;;5040556;28;20412;-48
2022/10/05 13:53:35;;;;;;;3.17;1.53;;;;;;;;;;5031272;28;20402;-44
2022/10/05 13:56:20;;;;;;;2.40;1.73;;;;;;;;;;5031172;28;20476;-44
2022/10/05 13:58:46;;;;;;;2.30;1.80;;;;;;;;;;5030105;28;20453;-44
2022/10/05 14:01:15;;;;;;;2.90;1.70;;;;;;;;;;5031323;28;20394;-43
2022/10/05 14:03:41;;;;;;;7.90;1.80;;;;;;;;;;5031408;28;20422;-45
2022/10/05 14:06:30;;;;;;;1.63;1.53;;;;;;;;;;5030950;28;20469;-43
2022/10/05 14:08:57;;;;;;;3.97;1.73;;;;;;;;;;5031001;28;20421;-43
2022/10/05 14:11:25;;;;;;;1.90;1.80;;;;;;;;;;5031953;28;20443;-44
2022/10/05 14:13:52;;;;;;;1.90;1.80;;;;;;;;;;5031768;28;20410;-44
2022/10/05 14:16:18;;;;;;;1.80;1.70;;;;;;;;;;5031542;28;20481;-44
2022/10/05 14:19:03;;;;;;;2.07;1.97;;;;;;;;;;5031207;28;20433;-44
2022/10/05 14:21:29;;;;;;;1.93;1.70;;;;;;;;;;5034472;28;20849;-45
2022/10/05 14:23:58;;;;;;;1.83;1.73;;;;;;;;;;5031706;28;20485;-45
2022/10/05 14:26:35;;;;;;;1.97;1.63;;;;;;;;;;5031407;28;20409;-45
2022/10/05 14:29:22;;;;;;;4.30;1.90;;;;;;;;;;5031243;28;20949;-48
2022/10/05 14:31:51;;;;;;;2.07;1.93;;;;;;;;;;5031797;28;20402;-49
2022/10/05 14:34:26;;;;;;;2.30;1.80;;;;;;;;;;5040893;28;20412;-47
2022/10/05 14:37:00;;;;;;;1.97;1.83;;;;;;;;;;5051394;28;20458;-46
2022/10/05 14:39:26;;;;;;;2.70;1.63;;;;;;;;;;5050045;28;20496;-46
2022/10/05 14:41:53;;;;;;;2.07;1.40;;;;;;;;;;5051599;28;20810;-48
2022/10/05 14:44:29;;;;;;;3.23;1.70;;;;;;;;;;5051509;28;20434;-48
2022/10/05 14:47:03;;;;;;;2.27;1.80;;;;;;;;;;5049687;28;20405;-48
2022/10/05 14:49:32;;;;;;;1.50;1.40;;;;;;;;;;5050964;28;20484;-43
2022/10/05 14:51:58;;;;;;;2.50;2.30;;;;;;;;;;5051439;28;20397;-43
2022/10/05 14:54:29;;;;;;;3.40;1.90;;;;;;;;;;5051218;28;20412;-44
2022/10/05 14:56:55;;;;;;;2.33;2.13;;;;;;;;;;5050882;28;20528;-43
2022/10/05 14:59:30;;;;;;;2.23;2.03;;;;;;;;;;5050638;28;20496;-44
2022/10/05 15:02:00;;;;;;;3.47;2.30;;;;;;;;;;5051098;28;20408;-44
2022/10/05 15:04:48;;;;;;;3.73;2.30;;;;;;;;;;5054479;28;20443;-44
2022/10/05 15:07:30;;;;;;;2.27;2.07;;;;;;;;;;5054701;28;20396;-43
2022/10/05 15:09:56;;;;;;;2.90;2.27;;;;;;;;;;5055009;28;20397;-41
2022/10/05 15:12:27;;;;;;;2.47;2.27;;;;;;;;;;5055061;28;20408;-41
2022/10/05 15:14:55;;;;;;;2.33;2.13;;;;;;;;;;5054829;28;20449;-42
2022/10/05 15:17:38;;;;;;;2.30;2.20;;;;;;;;;;5054369;28;20428;-41
2022/10/05 15:20:17;;;;;;;3.60;2.23;;;;;;;;;;5054763;28;20480;-41
2022/10/05 15:22:48;;;;;;;2.20;2.00;;;;;;;;;;5054415;28;20409;-43
2022/10/05 15:25:15;;;;;;;2.33;2.23;;;;;;;;;;5054940;28;20495;-41
2022/10/05 15:27:49;;;;;;;2.70;2.50;;;;;;;;;;5054005;28;20430;-46
2022/10/05 15:30:17;;;;;;;2.70;2.50;;;;;;;;;;5055243;28;20407;-41
2022/10/05 15:33:03;;;;;;;2.67;2.47;;;;;;;;;;5054557;28;20417;-42